EGYH

Holbeach Airport

United Kingdom
METAR EGYH 151050Z 33021KT 9999 -RA FEW020 SCT040 03/02 Q0997 BLU
Observed Flight Rules
Dec-15 @ 10:50 UTC (9 hours ago) Visual Flight Rules
Wind Visibility Clouds Conditions
330° at 21 knots 10,000+ meters
  • Few at 2,000' AGL
  • Scattered at 4,000' AGL
  • Light Rain
Temperatures Readings
Current 3°C / 37°F
Dewpoint 2°C / 36°F
Humidity 93%
Altimeter 29.44" Hg
Pressure 997 hPa
Elevation 3
METAR EGYH 151050Z 33021KT 9999 -RA FEW020 SCT040 03/02 Q0997 BLU
Observed Flight Rules
Dec-15 @ 10:50 UTC
(9 hours ago)
VFR
Wind Visibility
330° at 21 knots 10,000+ meters
Clouds
  • Few at 2,000' AGL
  • Scattered at 4,000' AGL
Conditions
  • Light Rain
Temperature Dewpoint
3°C / 37°F 2°C / 36°F
Humidity Altimeter Pressure
93% 29.44" Hg 997 hPa